createdAt,value
2023-02-02T00:02:44.547Z,11.10
2023-02-02T00:05:30.099Z,11.20
2023-02-02T00:08:15.474Z,11.10
2023-02-02T00:11:00.792Z,11.20
2023-02-02T00:13:46.696Z,11.30
2023-02-02T00:16:39.693Z,11.30
2023-02-02T00:19:27.479Z,11.20
2023-02-02T00:22:13.111Z,11.30
2023-02-02T00:24:58.454Z,11.50
2023-02-02T00:27:43.751Z,11.70
2023-02-02T00:30:29.369Z,11.70
2023-02-02T00:33:15.175Z,11.60
2023-02-02T00:36:01.731Z,11.40
2023-02-02T00:38:47.129Z,11.50
2023-02-02T00:41:32.622Z,11.60
2023-02-02T00:44:36.733Z,11.50
2023-02-02T00:47:23.048Z,11.60
2023-02-02T00:50:09.285Z,11.40
2023-02-02T00:52:55.933Z,11.50
2023-02-02T00:55:41.458Z,11.60
2023-02-02T00:58:26.755Z,11.60
2023-02-02T01:01:15.181Z,11.50
2023-02-02T01:04:01.465Z,11.50
2023-02-02T01:06:46.792Z,11.50
2023-02-02T01:09:34.154Z,11.60
2023-02-02T01:12:19.737Z,11.60
2023-02-02T01:15:05.945Z,11.50
2023-02-02T01:17:51.605Z,11.40
2023-02-02T01:20:37.179Z,11.10
2023-02-02T01:23:22.277Z,11.00
2023-02-02T01:26:09.931Z,11.20
2023-02-02T01:28:55.475Z,11.20
2023-02-02T01:31:42.229Z,11.20
2023-02-02T01:34:28.905Z,10.90
2023-02-02T01:37:14.781Z,11.20
2023-02-02T01:40:00.459Z,11.30
2023-02-02T01:42:47.723Z,11.60
2023-02-02T01:45:33.336Z,11.60
2023-02-02T01:48:20.675Z,11.70
2023-02-02T01:51:07.666Z,11.60
2023-02-02T01:53:54.577Z,11.40
2023-02-02T01:56:43.321Z,11.30
2023-02-02T01:59:31.438Z,11.30
2023-02-02T02:02:17.930Z,11.20
2023-02-02T02:05:04.767Z,11.10
2023-02-02T02:07:52.019Z,11.00
2023-02-02T02:10:37.637Z,11.30
2023-02-02T02:13:45.192Z,11.30
2023-02-02T02:16:37.275Z,11.30
2023-02-02T02:20:01.386Z,11.40
2023-02-02T02:23:17.894Z,11.40
2023-02-02T02:26:35.963Z,11.40
2023-02-02T02:29:44.677Z,11.40
2023-02-02T02:32:37.546Z,11.50
2023-02-02T02:35:29.036Z,11.70
2023-02-02T02:38:18.157Z,11.50
2023-02-02T02:41:05.536Z,11.60
2023-02-02T02:43:53.275Z,11.50
2023-02-02T02:46:39.502Z,11.60
2023-02-02T02:49:26.222Z,11.60
2023-02-02T02:52:11.617Z,11.60
2023-02-02T02:54:58.337Z,11.60
2023-02-02T02:57:58.856Z,11.80
2023-02-02T03:00:51.872Z,11.80
2023-02-02T03:03:54.033Z,11.70
2023-02-02T03:06:44.113Z,11.50
2023-02-02T03:09:34.824Z,11.50
2023-02-02T03:12:20.620Z,11.40
2023-02-02T03:15:06.603Z,11.40
2023-02-02T03:17:52.946Z,11.50
2023-02-02T03:20:38.452Z,11.30
2023-02-02T03:23:25.361Z,11.10
2023-02-02T03:26:11.044Z,11.40
2023-02-02T03:28:59.864Z,11.50
2023-02-02T03:31:46.354Z,11.50
2023-02-02T03:34:31.986Z,11.50
2023-02-02T03:37:17.913Z,11.30
2023-02-02T03:40:05.726Z,11.40
2023-02-02T03:42:51.541Z,11.20
2023-02-02T03:45:37.405Z,11.30
2023-02-02T03:48:23.231Z,11.10
2023-02-02T03:51:09.301Z,11.20
2023-02-02T03:53:54.874Z,11.20
2023-02-02T03:56:41.686Z,11.20
2023-02-02T03:59:27.305Z,11.20
2023-02-02T04:02:13.177Z,11.20
2023-02-02T04:04:58.676Z,11.00
2023-02-02T04:07:44.358Z,11.20
2023-02-02T04:10:29.912Z,11.20
2023-02-02T04:13:17.195Z,11.00
2023-02-02T04:16:02.655Z,11.00
2023-02-02T04:18:48.176Z,11.20
2023-02-02T04:21:33.941Z,11.10
2023-02-02T04:24:19.626Z,11.20
2023-02-02T04:27:05.221Z,11.10
2023-02-02T04:29:52.466Z,11.40
2023-02-02T04:32:38.099Z,11.50
2023-02-02T04:35:24.178Z,11.70
2023-02-02T04:38:10.166Z,11.30
2023-02-02T04:40:55.954Z,11.40
2023-02-02T04:43:41.128Z,11.40
2023-02-02T04:46:28.665Z,11.40
2023-02-02T04:49:14.414Z,11.50
2023-02-02T04:51:59.773Z,11.40
2023-02-02T04:54:45.350Z,11.50
2023-02-02T04:57:30.924Z,11.50
2023-02-02T05:00:16.623Z,11.50
2023-02-02T05:03:03.469Z,11.60
2023-02-02T05:05:48.951Z,11.70
2023-02-02T05:08:34.839Z,11.70
2023-02-02T05:11:21.022Z,11.60
2023-02-02T05:14:06.505Z,11.60
2023-02-02T05:16:52.721Z,11.60
2023-02-02T05:19:41.082Z,11.40
2023-02-02T05:22:26.951Z,11.20
2023-02-02T05:25:12.632Z,11.50
2023-02-02T05:27:58.655Z,11.60
2023-02-02T05:30:44.186Z,11.60
2023-02-02T05:33:30.026Z,11.60
2023-02-02T05:36:16.919Z,11.70
2023-02-02T05:39:02.411Z,11.50
2023-02-02T05:41:47.980Z,11.70
2023-02-02T05:44:33.608Z,11.60
2023-02-02T05:47:18.868Z,11.50
2023-02-02T05:50:04.173Z,11.50
2023-02-02T05:52:51.214Z,11.60
2023-02-02T05:55:36.795Z,11.70
2023-02-02T05:58:22.253Z,11.70
2023-02-02T06:01:08.579Z,11.50
2023-02-02T06:03:54.073Z,11.40
2023-02-02T06:06:39.916Z,11.50
2023-02-02T06:09:26.845Z,11.60
2023-02-02T06:12:12.375Z,11.70
2023-02-02T06:14:57.805Z,11.60
2023-02-02T06:17:43.060Z,11.50
2023-02-02T06:20:28.912Z,11.40
2023-02-02T06:23:14.734Z,11.60
2023-02-02T06:26:03.458Z,11.60
2023-02-02T06:28:49.730Z,11.50
2023-02-02T06:31:35.112Z,11.40
2023-02-02T06:34:20.681Z,11.40
2023-02-02T06:37:05.909Z,11.60
2023-02-02T06:39:51.162Z,11.50
2023-02-02T06:42:37.809Z,11.40
2023-02-02T06:45:23.514Z,11.50
2023-02-02T06:48:10.999Z,11.40
2023-02-02T06:50:57.695Z,11.60
2023-02-02T06:53:43.197Z,11.40
2023-02-02T06:56:28.779Z,11.30
2023-02-02T06:59:15.369Z,11.40
2023-02-02T07:02:00.911Z,11.50
2023-02-02T07:04:46.427Z,11.50
2023-02-02T07:07:32.209Z,11.40
2023-02-02T07:11:14.737Z,11.50
2023-02-02T07:13:24.623Z,11.50
2023-02-02T07:16:12.997Z,11.40
2023-02-02T07:18:58.514Z,11.30
2023-02-02T07:21:44.274Z,11.20
2023-02-02T07:24:29.899Z,11.20
2023-02-02T07:27:16.023Z,11.20
2023-02-02T07:30:01.266Z,11.20
2023-02-02T07:32:49.217Z,11.10
2023-02-02T07:35:35.437Z,11.10
2023-02-02T07:38:21.010Z,11.00
2023-02-02T07:41:06.764Z,10.90
2023-02-02T07:43:52.444Z,10.90
2023-02-02T07:46:38.050Z,10.90
2023-02-02T07:49:26.216Z,11.00
2023-02-02T07:52:11.789Z,11.00
2023-02-02T07:55:12.613Z,11.00
2023-02-02T07:58:00.040Z,10.90
2023-02-02T08:00:45.646Z,11.00
2023-02-02T08:03:31.451Z,10.80
2023-02-02T08:06:20.502Z,10.70
2023-02-02T08:09:07.875Z,10.70
2023-02-02T08:11:53.431Z,10.80
2023-02-02T08:14:38.752Z,11.00
2023-02-02T08:17:24.592Z,11.10
2023-02-02T08:20:13.012Z,11.00
2023-02-02T08:23:00.088Z,11.00
2023-02-02T08:25:45.570Z,11.10
2023-02-02T08:28:31.334Z,11.00
2023-02-02T08:31:17.952Z,11.20
2023-02-02T08:34:03.593Z,11.30
2023-02-02T08:36:49.266Z,11.30
2023-02-02T08:39:36.109Z,11.50
2023-02-02T08:42:21.560Z,11.60
2023-02-02T08:46:02.880Z,11.70
2023-02-02T08:48:14.542Z,11.60
2023-02-02T08:51:00.534Z,11.60
2023-02-02T08:53:46.385Z,11.80
2023-02-02T08:56:33.111Z,11.80
2023-02-02T08:59:18.548Z,11.90
2023-02-02T09:02:04.320Z,12.20
2023-02-02T09:04:49.915Z,12.10
2023-02-02T09:07:35.851Z,11.80
2023-02-02T09:10:21.693Z,11.90
2023-02-02T09:13:08.545Z,11.90
2023-02-02T09:15:54.106Z,12.10
2023-02-02T09:18:39.834Z,12.40
2023-02-02T09:21:25.602Z,12.60
2023-02-02T09:24:11.981Z,12.50
2023-02-02T09:26:57.861Z,12.60
2023-02-02T09:29:45.004Z,12.70
2023-02-02T09:32:30.803Z,12.80
2023-02-02T09:35:16.485Z,13.00
2023-02-02T09:38:02.250Z,12.90
2023-02-02T09:40:48.002Z,13.10
2023-02-02T09:43:42.528Z,13.20
2023-02-02T09:46:33.871Z,13.30
2023-02-02T09:49:23.214Z,13.20
2023-02-02T09:52:12.266Z,13.30
2023-02-02T09:54:59.472Z,13.20
2023-02-02T09:57:47.115Z,13.10
2023-02-02T10:00:33.741Z,13.20
2023-02-02T10:03:23.398Z,13.60
2023-02-02T10:06:13.363Z,13.70
2023-02-02T10:09:01.626Z,13.60
2023-02-02T10:11:50.747Z,13.40
2023-02-02T10:14:39.802Z,13.50
2023-02-02T10:17:37.529Z,13.30
2023-02-02T10:20:30.934Z,13.20
2023-02-02T10:23:21.870Z,13.20
2023-02-02T10:26:13.128Z,13.20
2023-02-02T10:29:05.104Z,13.40
2023-02-02T10:31:59.086Z,13.30
2023-02-02T10:35:12.628Z,13.40
2023-02-02T10:38:03.028Z,13.40
2023-02-02T10:41:01.593Z,13.30
2023-02-02T10:44:06.177Z,13.20
2023-02-02T10:46:55.108Z,13.00
2023-02-02T10:49:41.410Z,13.20
2023-02-02T10:52:33.620Z,13.30
2023-02-02T10:55:28.726Z,13.40
2023-02-02T10:58:19.380Z,13.20
2023-02-02T11:01:08.041Z,13.30
2023-02-02T11:04:13.714Z,13.10
2023-02-02T11:07:01.448Z,13.10
2023-02-02T11:09:47.616Z,13.20
2023-02-02T11:12:35.433Z,13.10
2023-02-02T11:15:25.777Z,13.30
2023-02-02T11:18:16.066Z,13.30
2023-02-02T11:21:01.531Z,13.20
2023-02-02T11:23:59.159Z,13.20
2023-02-02T11:26:46.084Z,13.50
2023-02-02T11:29:40.658Z,13.60
2023-02-02T11:32:27.765Z,13.50
2023-02-02T11:35:19.394Z,13.80
2023-02-02T11:38:09.329Z,14.10
2023-02-02T11:40:56.479Z,14.20
2023-02-02T11:43:48.469Z,14.20
2023-02-02T11:46:38.205Z,14.40
2023-02-02T11:49:23.805Z,14.50
2023-02-02T11:52:15.278Z,14.20
2023-02-02T11:55:02.076Z,14.30
2023-02-02T11:58:03.074Z,14.40
2023-02-02T12:00:49.497Z,14.10
2023-02-02T12:03:37.277Z,14.10
2023-02-02T12:06:23.720Z,14.10
2023-02-02T12:09:12.082Z,14.20
2023-02-02T12:12:00.323Z,14.20
2023-02-02T12:14:51.561Z,14.10
2023-02-02T12:17:42.120Z,13.80
2023-02-02T12:20:33.702Z,13.80
2023-02-02T12:23:28.055Z,13.70
2023-02-02T12:26:20.375Z,13.50
2023-02-02T12:29:18.784Z,13.50
2023-02-02T12:32:11.626Z,13.30
2023-02-02T12:35:02.279Z,13.40
2023-02-02T12:37:53.079Z,13.40
2023-02-02T12:40:44.283Z,13.30
2023-02-02T12:43:39.505Z,13.00
2023-02-02T12:46:30.526Z,13.30
2023-02-02T12:49:25.562Z,13.20
2023-02-02T12:55:00.673Z,13.30
2023-02-02T12:57:52.960Z,13.20
2023-02-02T13:00:48.145Z,13.00
2023-02-02T13:03:43.111Z,12.90
2023-02-02T13:06:47.453Z,13.00
2023-02-02T13:09:34.667Z,12.70
2023-02-02T13:12:23.276Z,12.60
2023-02-02T13:15:11.119Z,12.70
2023-02-02T13:17:57.418Z,12.70
2023-02-02T13:20:45.278Z,12.40
2023-02-02T13:23:32.636Z,12.40
2023-02-02T13:26:19.258Z,12.40
2023-02-02T13:29:09.407Z,12.30
2023-02-02T13:31:58.097Z,12.50
2023-02-02T13:34:46.893Z,12.30
2023-02-02T13:37:37.236Z,11.70
2023-02-02T13:40:25.424Z,12.10
2023-02-02T13:43:20.211Z,12.20
2023-02-02T13:46:12.322Z,12.20
2023-02-02T13:49:00.370Z,12.30
2023-02-02T13:51:53.843Z,11.90
2023-02-02T13:54:54.073Z,12.00
2023-02-02T14:00:56.826Z,12.20
2023-02-02T14:03:51.597Z,12.30
2023-02-02T14:06:53.006Z,12.10
2023-02-02T14:09:38.656Z,12.20
2023-02-02T14:12:30.310Z,12.10
2023-02-02T14:15:16.023Z,12.40
2023-02-02T14:18:01.618Z,12.30
2023-02-02T14:20:49.616Z,12.00
2023-02-02T14:23:51.019Z,12.20
2023-02-02T14:26:41.460Z,12.40
2023-02-02T14:29:39.487Z,12.50
2023-02-02T14:32:30.595Z,12.60
2023-02-02T14:35:33.934Z,12.70
2023-02-02T14:38:24.298Z,13.00
2023-02-02T14:41:12.698Z,12.90
2023-02-02T14:44:03.564Z,12.90
2023-02-02T14:46:49.487Z,12.60
2023-02-02T14:49:35.602Z,12.50
2023-02-02T14:52:22.247Z,12.50
2023-02-02T14:55:18.359Z,12.40
2023-02-02T14:58:05.001Z,12.20
2023-02-02T15:00:55.071Z,12.20
2023-02-02T15:03:49.030Z,12.20
2023-02-02T15:06:35.376Z,12.40
2023-02-02T15:09:36.748Z,12.50
2023-02-02T15:12:29.510Z,12.20
2023-02-02T15:15:20.432Z,12.40
2023-02-02T15:18:12.684Z,12.00
2023-02-02T15:20:59.971Z,12.00
2023-02-02T15:23:46.795Z,11.80
2023-02-02T15:26:34.797Z,12.20
2023-02-02T15:29:29.660Z,12.10
2023-02-02T15:32:16.727Z,12.20
2023-02-02T15:35:04.244Z,12.40
2023-02-02T15:37:53.414Z,12.30
2023-02-02T15:40:39.267Z,12.30
2023-02-02T15:43:26.897Z,12.40
2023-02-02T15:46:15.877Z,12.20
2023-02-02T15:49:33.380Z,12.10
2023-02-02T15:52:23.179Z,12.10
2023-02-02T15:55:19.367Z,12.20
2023-02-02T15:58:19.452Z,12.30
2023-02-02T16:01:07.017Z,12.20
2023-02-02T16:03:56.365Z,12.30
2023-02-02T16:06:42.399Z,12.20
2023-02-02T16:09:31.463Z,12.30
2023-02-02T16:12:19.605Z,12.20
2023-02-02T16:15:15.548Z,12.10
2023-02-02T16:18:01.753Z,12.10
2023-02-02T16:20:49.477Z,12.10
2023-02-02T16:23:36.060Z,12.10
2023-02-02T16:26:25.129Z,12.20
2023-02-02T16:29:12.202Z,12.20
2023-02-02T16:31:58.332Z,12.00
2023-02-02T16:34:46.712Z,12.00
2023-02-02T16:37:36.381Z,12.10
2023-02-02T16:40:25.325Z,12.10
2023-02-02T16:43:17.114Z,12.20
2023-02-02T16:46:04.580Z,11.90
2023-02-02T16:48:56.028Z,12.20
2023-02-02T16:51:41.356Z,12.10
2023-02-02T16:54:28.173Z,11.90
2023-02-02T16:57:16.938Z,12.00
2023-02-02T17:00:04.709Z,12.00
2023-02-02T17:02:51.927Z,12.10
2023-02-02T17:05:45.507Z,11.90
2023-02-02T17:08:32.254Z,12.00
2023-02-02T17:11:24.459Z,12.00
2023-02-02T17:14:19.028Z,11.80
2023-02-02T17:17:05.586Z,11.90
2023-02-02T17:19:51.386Z,12.00
2023-02-02T17:22:38.209Z,12.10
2023-02-02T17:25:27.615Z,12.20
2023-02-02T17:28:16.705Z,12.10
2023-02-02T17:31:03.492Z,11.90
2023-02-02T17:33:49.114Z,12.00
2023-02-02T17:36:34.696Z,11.90
2023-02-02T17:39:20.152Z,11.80
2023-02-02T17:42:06.427Z,12.00
2023-02-02T17:44:52.971Z,11.70
2023-02-02T17:47:38.626Z,11.90
2023-02-02T17:50:24.531Z,11.90
2023-02-02T17:53:17.372Z,11.90
2023-02-02T17:56:03.324Z,12.00
2023-02-02T17:58:49.057Z,12.30
2023-02-02T18:01:39.389Z,12.10
2023-02-02T18:04:26.890Z,12.20
2023-02-02T18:07:12.542Z,12.20
2023-02-02T18:09:58.283Z,11.90
2023-02-02T18:12:43.988Z,11.90
2023-02-02T18:15:29.851Z,11.80
2023-02-02T18:18:17.326Z,11.70
2023-02-02T18:21:07.359Z,11.70
2023-02-02T18:23:53.216Z,11.80
2023-02-02T18:26:39.656Z,11.90
2023-02-02T18:29:25.565Z,11.90
2023-02-02T18:32:11.499Z,11.90
2023-02-02T18:34:58.835Z,12.00
2023-02-02T18:37:44.442Z,12.00
2023-02-02T18:40:30.350Z,11.90
2023-02-02T18:43:16.111Z,11.70
2023-02-02T18:46:04.593Z,11.80
2023-02-02T18:48:50.236Z,11.90
2023-02-02T18:51:37.107Z,11.80
2023-02-02T18:54:22.762Z,12.00
2023-02-02T18:57:08.330Z,11.80
2023-02-02T18:59:54.257Z,11.80
2023-02-02T19:02:40.038Z,11.60
2023-02-02T19:05:44.777Z,11.50
2023-02-02T19:08:33.723Z,11.50
2023-02-02T19:11:22.216Z,11.40
2023-02-02T19:14:14.089Z,11.40
2023-02-02T19:17:08.352Z,11.50
2023-02-02T19:19:58.826Z,11.30
2023-02-02T19:22:45.153Z,11.40
2023-02-02T19:25:32.500Z,11.40
2023-02-02T19:28:22.490Z,11.40
2023-02-02T19:31:12.949Z,11.30
2023-02-02T19:33:58.571Z,11.20
2023-02-02T19:36:46.877Z,11.00
2023-02-02T19:39:32.649Z,11.10
2023-02-02T19:42:19.756Z,11.00
2023-02-02T19:45:20.606Z,10.80
2023-02-02T19:48:15.150Z,10.80
2023-02-02T19:51:21.298Z,10.80
2023-02-02T19:54:25.897Z,10.80
2023-02-02T19:57:21.107Z,10.70
2023-02-02T20:00:20.111Z,10.70
2023-02-02T20:03:07.547Z,10.50
2023-02-02T20:05:55.847Z,10.60
2023-02-02T20:08:43.904Z,10.90
2023-02-02T20:11:32.839Z,10.90
2023-02-02T20:14:29.264Z,11.00
2023-02-02T20:17:26.091Z,10.90
2023-02-02T20:20:25.432Z,10.90
2023-02-02T20:23:22.159Z,11.10
2023-02-02T20:26:22.342Z,11.10
2023-02-02T20:29:16.772Z,11.10
2023-02-02T20:32:05.130Z,11.30
2023-02-02T20:34:54.065Z,11.50
2023-02-02T20:37:40.211Z,11.50
2023-02-02T20:40:28.004Z,11.50
2023-02-02T20:43:15.758Z,11.60
2023-02-02T20:46:01.733Z,11.60
2023-02-02T20:48:49.020Z,11.70
2023-02-02T20:51:40.515Z,11.70
2023-02-02T20:54:26.541Z,11.60
2023-02-02T20:57:12.578Z,11.80
2023-02-02T20:59:59.676Z,12.00
2023-02-02T21:02:45.136Z,11.90
2023-02-02T21:05:30.587Z,12.00
2023-02-02T21:08:17.453Z,12.00
2023-02-02T21:11:03.260Z,11.80
2023-02-02T21:13:50.149Z,11.80
2023-02-02T21:16:36.168Z,11.90
2023-02-02T21:19:22.182Z,12.00
2023-02-02T21:22:08.026Z,12.00
2023-02-02T21:24:54.924Z,12.10
2023-02-02T21:27:41.381Z,12.40
2023-02-02T21:30:27.849Z,12.30
2023-02-02T21:33:13.847Z,12.40
2023-02-02T21:36:01.016Z,12.50
2023-02-02T21:38:46.900Z,12.50
2023-02-02T21:41:34.293Z,12.50
2023-02-02T21:44:22.339Z,12.50
2023-02-02T21:47:25.254Z,12.70
2023-02-02T21:50:16.129Z,12.40
2023-02-02T21:53:19.101Z,12.40
2023-02-02T21:56:20.941Z,12.30
2023-02-02T21:59:15.455Z,12.50
2023-02-02T22:02:32.040Z,12.60
2023-02-02T22:05:22.970Z,12.60
2023-02-02T22:08:25.116Z,12.50
2023-02-02T22:11:22.363Z,12.50
2023-02-02T22:14:22.555Z,12.40
2023-02-02T22:17:23.730Z,12.50
2023-02-02T22:20:23.801Z,12.50
2023-02-02T22:23:12.229Z,12.40
2023-02-02T22:25:59.054Z,12.50
2023-02-02T22:28:44.517Z,12.30
2023-02-02T22:31:31.577Z,12.60
2023-02-02T22:34:17.318Z,12.60
2023-02-02T22:37:03.500Z,12.70
2023-02-02T22:39:48.995Z,12.70
2023-02-02T22:42:34.904Z,12.80
2023-02-02T22:45:20.555Z,12.90
2023-02-02T22:48:07.774Z,12.80
2023-02-02T22:54:48.328Z,12.60
2023-02-02T22:57:34.362Z,13.00
2023-02-02T23:00:22.018Z,12.70
2023-02-02T23:03:07.511Z,12.40
2023-02-02T23:05:53.112Z,12.30
2023-02-02T23:08:38.672Z,12.60
2023-02-02T23:11:26.087Z,12.60
2023-02-02T23:14:11.958Z,12.60
2023-02-02T23:16:57.246Z,12.60
2023-02-02T23:19:42.706Z,12.50
2023-02-02T23:22:28.448Z,12.60
2023-02-02T23:25:14.032Z,12.30
2023-02-02T23:28:01.239Z,12.30
2023-02-02T23:30:46.930Z,12.20
2023-02-02T23:33:32.552Z,12.20
2023-02-02T23:36:18.072Z,12.30
2023-02-02T23:39:04.239Z,12.40
2023-02-02T23:41:50.110Z,12.40
2023-02-02T23:44:37.400Z,12.50
2023-02-02T23:47:23.042Z,12.60
2023-02-02T23:50:09.401Z,12.80
2023-02-02T23:52:54.747Z,12.50
2023-02-02T23:55:40.614Z,12.40
2023-02-02T23:58:26.538Z,12.20
